Sch-135 Galibier — PBIB — position and weather

sailwx.info

Track history (hours):
 
Tides and Currents Weather Stations Pressure Air Temp Water Temp Dewpoint Dewpoint Depression Visibility Wind Speed Wind Dir Waves Ship Positions

Sch-135 Galibier

Last reported at 2016-Dec-01 10:18 UTC. Time now 2016-Dec-04 10:10 UTC.
Position N 50°20' E 000°35'.

Length 35 m; draft 4.2 m.

Type: Fishing. MMSI: 244630637.

Date/timePositionNaut miles runAvg speedWind from/ knotsBaromVisibWave heightAir tempDewpointWater temp
2016-Dec-01 10:18N 50°20' E 000°35'3 1.6
2016-Dec-01 08:19N 50°20' E 000°30'1 0.6
2016-Dec-01 07:21N 50°21' E 000°31'13 1.2
2016-Nov-30 20:32N 50°14' E 000°13'7 7.1
2016-Nov-30 19:33N 50°12' E 000°03'2110.2
2016-Nov-30 17:31N 50°05' W 000°27'1 0.5
2016-Nov-30 16:19N 50°05' W 000°28'3 1.6
2016-Nov-30 14:22N 50°07' W 000°26'3 1.0
2016-Nov-30 11:30N 50°07' W 000°22'1 0.9
2016-Nov-30 10:20N 50°07' W 000°23'2 0.8
2016-Nov-30 08:06N 50°05' W 000°25'6 1.5
2016-Nov-30 04:07N 50°06' W 000°15'3 5.7
2016-Nov-30 03:32N 50°06' W 000°10'8 7.7
2016-Nov-30 02:33N 50°05' E 000°02'9 7.8
2016-Nov-30 01:27N 50°04' E 000°15'21 2.1
2016-Nov-29 15:26N 50°21' W 000°01'1 1.3
2016-Nov-29 14:33N 50°22' W 000°02'1 1.4
2016-Nov-29 13:32N 50°22' E 000°00'1 0.6
2016-Nov-29 12:20N 50°23' E 000°01'0 0.6
2016-Nov-29 11:34N 50°24' E 000°01'1 0.7
2016-Nov-29 10:32N 50°23' E 000°00'1 0.9
2016-Nov-29 09:30N 50°22' E 000°00'2 1.2
2016-Nov-29 07:26N 50°22' W 000°04'0 0.5
2016-Nov-29 06:33N 50°22' W 000°04'3 2.1
2016-Nov-29 05:11N 50°22' E 000°00'3 1.7
2016-Nov-29 03:32N 50°22' W 000°04'2 1.5
2016-Nov-29 02:31N 50°23' W 000°06'1 1.0
2016-Nov-29 01:32N 50°23' W 000°07'2 0.9
2016-Nov-28 23:33N 50°22' W 000°05'4 3.9
2016-Nov-28 22:31N 50°23' E 000°01'  
Track history (hours):
 
Tides and Currents Weather Stations Pressure Air Temp Water Temp Dewpoint Dewpoint Depression Visibility Wind Speed Wind Dir Waves Ship Positions

Sch-135 Galibier

Last reported at 2016-Dec-01 10:18 UTC. Time now 2016-Dec-04 10:10 UTC.
Position N 50°20' E 000°35'.

Length 35 m; draft 4.2 m.

Type: Fishing. MMSI: 244630637.

Date/timePositionNaut miles runAvg speedWind from/ knotsBaromVisibWave heightAir tempDewpointWater temp
2016-Dec-01 10:18N 50°20' E 000°35'3 1.6
2016-Dec-01 08:19N 50°20' E 000°30'1 0.6
2016-Dec-01 07:21N 50°21' E 000°31'13 1.2
2016-Nov-30 20:32N 50°14' E 000°13'7 7.1
2016-Nov-30 19:33N 50°12' E 000°03'2110.2
2016-Nov-30 17:31N 50°05' W 000°27'1 0.5
2016-Nov-30 16:19N 50°05' W 000°28'3 1.6
2016-Nov-30 14:22N 50°07' W 000°26'3 1.0
2016-Nov-30 11:30N 50°07' W 000°22'1 0.9
2016-Nov-30 10:20N 50°07' W 000°23'2 0.8
2016-Nov-30 08:06N 50°05' W 000°25'6 1.5
2016-Nov-30 04:07N 50°06' W 000°15'3 5.7
2016-Nov-30 03:32N 50°06' W 000°10'8 7.7
2016-Nov-30 02:33N 50°05' E 000°02'9 7.8
2016-Nov-30 01:27N 50°04' E 000°15'21 2.1
2016-Nov-29 15:26N 50°21' W 000°01'1 1.3
2016-Nov-29 14:33N 50°22' W 000°02'1 1.4
2016-Nov-29 13:32N 50°22' E 000°00'1 0.6
2016-Nov-29 12:20N 50°23' E 000°01'0 0.6
2016-Nov-29 11:34N 50°24' E 000°01'1 0.7
2016-Nov-29 10:32N 50°23' E 000°00'1 0.9
2016-Nov-29 09:30N 50°22' E 000°00'2 1.2
2016-Nov-29 07:26N 50°22' W 000°04'0 0.5
2016-Nov-29 06:33N 50°22' W 000°04'3 2.1
2016-Nov-29 05:11N 50°22' E 000°00'3 1.7
2016-Nov-29 03:32N 50°22' W 000°04'2 1.5
2016-Nov-29 02:31N 50°23' W 000°06'1 1.0
2016-Nov-29 01:32N 50°23' W 000°07'2 0.9
2016-Nov-28 23:33N 50°22' W 000°05'4 3.9
2016-Nov-28 22:31N 50°23' E 000°01'  

Dump ship's entire track history